Time;durP1;ratioP1;P1;durP2;ratioP2;P2;SDS_P1;SDS_P2;PMS_P1;PMS_P2;Temp;Humidity;BMP_temperature;BMP_pressure;BME280_temperature;BME280_humidity;BME280_pressure;Samples;Min_cycle;Max_cycle;Signal;HPM_P1;HPM_P2
2023/09/06 00:00:42;;;;;;;13.63;3.00;;;;;;;24.17;52.06;100012.88;5071090;28;20032;-84
2023/09/06 00:03:08;;;;;;;9.40;2.90;;;;;;;24.21;51.41;100019.78;5070941;28;20025;-85
2023/09/06 00:05:33;;;;;;;11.10;2.90;;;;;;;24.15;52.77;100014.81;5070780;28;20036;-84
2023/09/06 00:07:59;;;;;;;9.43;2.90;;;;;;;24.17;52.12;100015.56;5070752;28;20074;-83
2023/09/06 00:10:24;;;;;;;11.20;3.20;;;;;;;24.14;52.34;100010.41;5068656;28;20055;-82
2023/09/06 00:12:50;;;;;;;11.03;2.70;;;;;;;24.13;52.66;100009.56;5050764;28;20072;-83
2023/09/06 00:15:15;;;;;;;8.07;2.60;;;;;;;24.10;52.65;100008.88;5050585;28;20029;-82
2023/09/06 00:17:41;;;;;;;10.20;2.90;;;;;;;24.10;52.72;100011.56;5050735;28;20033;-85
2023/09/06 00:22:45;;;;;;;11.25;2.92;;;;;;;24.09;52.95;100010.69;5050670;28;20411;-82
2023/09/06 00:25:10;;;;;;;9.97;2.70;;;;;;;24.03;53.59;100011.97;5050525;28;20040;-82
2023/09/06 00:27:35;;;;;;;11.23;3.30;;;;;;;24.04;53.56;100005.63;5090692;28;20031;-83
2023/09/06 00:30:01;;;;;;;12.63;3.50;;;;;;;24.02;53.83;100006.69;5090559;28;20044;-82
2023/09/06 00:32:27;;;;;;;11.47;2.90;;;;;;;23.97;53.57;100001.56;5090417;28;20028;-83
2023/09/06 00:34:52;;;;;;;12.15;3.50;;;;;;;23.93;53.88;100000.91;5090620;28;20032;-83
2023/09/06 00:37:18;;;;;;;13.87;3.27;;;;;;;23.83;54.02;100004.28;5090583;28;20097;-83
2023/09/06 00:39:45;;;;;;;10.13;3.07;;;;;;;23.87;54.30;100000.44;5091529;28;20047;-85
2023/09/06 00:42:10;;;;;;;12.98;3.20;;;;;;;23.87;54.27;99995.06;5090718;28;20020;-83
2023/09/06 00:44:36;;;;;;;10.53;3.20;;;;;;;23.84;54.54;99997.94;5090401;28;20423;-85
2023/09/06 00:47:01;;;;;;;12.18;3.00;;;;;;;23.85;54.39;100002.38;5090262;28;20020;-84
2023/09/06 00:49:27;;;;;;;12.30;3.00;;;;;;;23.82;54.58;99994.50;5090291;28;20402;-83
2023/09/06 00:51:52;;;;;;;10.93;3.00;;;;;;;23.82;54.41;100002.56;5090083;28;20032;-82
2023/09/06 00:54:17;;;;;;;12.00;3.08;;;;;;;23.75;54.80;99992.22;5090326;28;20111;-82
2023/09/06 00:56:43;;;;;;;11.20;3.20;;;;;;;23.74;54.92;99989.59;5077465;28;20024;-83
2023/09/06 00:59:12;;;;;;;16.47;3.37;;;;;;;23.70;55.27;99994.31;5070004;28;20028;-82
2023/09/06 01:01:37;;;;;;;15.93;3.47;;;;;;;23.69;54.87;99992.56;5069781;28;20112;-83
2023/09/06 01:04:03;;;;;;;9.90;3.07;;;;;;;23.69;55.17;99984.50;5070066;28;20445;-85
2023/09/06 01:06:33;;;;;;;10.33;2.70;;;;;;;23.69;54.99;99986.34;5069255;28;20704;-83
2023/09/06 01:08:59;;;;;;;10.43;3.00;;;;;;;23.65;55.29;99988.34;5049638;28;20520;-83
2023/09/06 01:11:26;;;;;;;9.13;3.03;;;;;;;23.61;55.33;99987.69;5049591;28;20122;-83
2023/09/06 01:13:53;;;;;;;10.33;3.30;;;;;;;23.61;55.21;99989.53;5049583;28;20033;-84
2023/09/06 01:16:41;;;;;;;10.13;2.92;;;;;;;23.56;55.46;99981.75;5049643;28;20029;-83
2023/09/06 01:19:11;;;;;;;11.90;3.20;;;;;;;23.51;55.75;99982.06;5049106;28;20396;-83
2023/09/06 01:22:00;;;;;;;9.93;3.33;;;;;;;23.58;55.60;99982.50;5049790;28;20159;-82
2023/09/06 01:24:28;;;;;;;10.52;3.42;;;;;;;23.52;55.61;99982.91;5049605;28;20143;-83
2023/09/06 01:26:55;;;;;;;7.73;2.70;;;;;;;23.55;55.27;99987.22;5078152;28;20020;-82
2023/09/06 01:29:20;;;;;;;8.80;3.20;;;;;;;23.50;55.76;99982.97;5089620;28;20024;-83
2023/09/06 01:31:46;;;;;;;10.30;3.13;;;;;;;23.45;55.55;99979.72;5089242;28;20340;-83
2023/09/06 01:34:11;;;;;;;10.30;3.13;;;;;;;23.44;55.71;99982.53;5089642;28;20024;-82
2023/09/06 01:36:37;;;;;;;10.03;2.70;;;;;;;23.43;55.60;99970.91;5089668;28;20695;-83
2023/09/06 01:39:04;;;;;;;11.45;3.35;;;;;;;23.39;55.96;99974.75;5089613;28;20025;-83
2023/09/06 01:41:30;;;;;;;9.53;2.77;;;;;;;23.45;55.39;99974.34;5089509;28;20040;-84
2023/09/06 01:43:55;;;;;;;11.40;2.90;;;;;;;23.42;55.63;99971.00;5089469;28;20028;-82
2023/09/06 01:46:23;;;;;;;14.00;3.40;;;;;;;23.45;55.26;99977.03;5089528;28;20028;-83
2023/09/06 01:48:48;;;;;;;11.02;3.55;;;;;;;23.42;55.64;99973.69;5089302;28;20495;-82
2023/09/06 01:51:15;;;;;;;8.97;3.17;;;;;;;23.36;55.68;99974.94;5089177;28;20063;-82
2023/09/06 01:53:41;;;;;;;9.10;2.90;;;;;;;23.32;55.96;99973.41;5089272;28;20118;-84
2023/09/06 01:56:07;;;;;;;9.68;3.10;;;;;;;23.32;55.86;99970.72;5081332;28;20580;-85
2023/09/06 01:58:33;;;;;;;8.80;2.80;;;;;;;23.34;55.85;99972.34;5069450;28;20029;-85
2023/09/06 02:01:00;;;;;;;8.97;3.00;;;;;;;23.34;55.89;99971.50;5069666;28;20420;-83
2023/09/06 02:03:27;;;;;;;8.73;3.30;;;;;;;23.33;55.76;99965.25;5062880;28;20036;-82
2023/09/06 02:05:52;;;;;;;9.13;3.20;;;;;;;23.32;55.86;99968.03;5049087;28;20488;-82
2023/09/06 02:08:18;;;;;;;10.90;2.77;;;;;;;23.27;55.82;99964.75;5048970;28;20071;-82
2023/09/06 02:10:44;;;;;;;11.77;2.97;;;;;;;23.24;55.72;99968.47;5048939;28;20032;-83
2023/09/06 02:13:10;;;;;;;11.70;3.10;;;;;;;23.22;55.59;99968.56;5048956;28;20119;-83
2023/09/06 02:15:35;;;;;;;8.50;3.20;;;;;;;23.21;55.99;99955.25;5048970;28;20471;-82
2023/09/06 02:18:01;;;;;;;8.97;3.03;;;;;;;23.20;55.70;99958.88;5048819;28;20049;-85
2023/09/06 02:20:28;;;;;;;10.13;3.13;;;;;;;23.19;55.74;99960.69;5049016;28;20119;-83
2023/09/06 02:22:57;;;;;;;9.32;2.90;;;;;;;23.20;55.63;99962.41;5049100;28;20496;-82
2023/09/06 02:25:29;;;;;;;10.70;3.13;;;;;;;23.18;55.73;99956.28;5052041;28;20032;-84
2023/09/06 02:27:56;;;;;;;9.88;2.80;;;;;;;23.15;55.54;99945.72;5089060;28;20035;-82
2023/09/06 02:30:21;;;;;;;9.52;2.53;;;;;;;23.14;55.54;99952.06;5090558;28;20046;-82
2023/09/06 02:32:48;;;;;;;8.40;2.43;;;;;;;23.13;55.65;99952.16;5092514;28;20036;-82
2023/09/06 02:35:13;;;;;;;9.40;3.05;;;;;;;23.12;55.52;99950.41;5092842;28;20148;-82
2023/09/06 02:37:39;;;;;;;12.87;3.07;;;;;;;23.04;55.29;99942.84;5093051;28;20184;-82
2023/09/06 02:40:23;;;;;;;8.83;3.20;;;;;;;23.03;55.02;99949.16;5092887;28;20028;-82
2023/09/06 02:42:51;;;;;;;11.60;2.90;;;;;;;23.04;55.06;99937.50;5093121;28;20487;-82
2023/09/06 02:45:17;;;;;;;7.13;2.75;;;;;;;23.07;54.88;99942.66;5093031;28;20032;-82
2023/09/06 02:47:50;;;;;;;11.40;2.63;;;;;;;23.04;54.60;99953.59;5092454;28;20056;-83
2023/09/06 02:50:16;;;;;;;10.55;2.85;;;;;;;23.06;54.59;99935.56;5092710;28;20414;-83
2023/09/06 02:52:44;;;;;;;8.73;2.63;;;;;;;23.06;54.70;99943.63;5092331;28;20169;-82
2023/09/06 02:55:13;;;;;;;9.80;3.00;;;;;;;23.05;54.54;99945.44;5092478;28;20263;-82
2023/09/06 02:57:40;;;;;;;12.15;2.70;;;;;;;23.05;54.34;99941.91;5052343;28;20031;-86
2023/09/06 03:00:24;;;;;;;9.67;2.80;;;;;;;23.07;54.30;99931.94;5052412;28;20053;-83
2023/09/06 03:02:52;;;;;;;8.07;2.90;;;;;;;23.08;54.15;99929.13;5052506;28;20025;-83
2023/09/06 03:05:17;;;;;;;12.13;2.88;;;;;;;23.07;54.08;99937.28;5052664;28;20029;-82
2023/09/06 03:07:49;;;;;;;8.80;2.87;;;;;;;23.03;54.19;99925.88;5052051;28;20032;-82
2023/09/06 03:10:19;;;;;;;9.23;2.90;;;;;;;22.94;54.39;99940.72;5052265;28;20285;-84
2023/09/06 03:12:54;;;;;;;11.95;2.72;;;;;;;22.92;54.41;99931.06;5052064;28;20128;-82
2023/09/06 03:15:22;;;;;;;10.55;2.75;;;;;;;22.92;54.32;99928.38;5051767;28;20519;-82
2023/09/06 03:17:49;;;;;;;8.38;2.58;;;;;;;22.90;54.25;99935.63;5052176;28;20128;-82
2023/09/06 03:20:47;;;;;;;7.70;2.73;;;;;;;22.89;54.39;99931.22;5051889;28;20423;-82
2023/09/06 03:23:27;;;;;;;9.07;3.00;;;;;;;22.88;54.39;99922.31;5046859;28;20504;-85
2023/09/06 03:25:54;;;;;;;9.63;2.58;;;;;;;22.90;54.29;99924.88;5062499;28;20032;-83
2023/09/06 03:28:21;;;;;;;10.07;2.90;;;;;;;22.90;54.09;99928.44;5091826;28;20039;-82
2023/09/06 03:30:47;;;;;;;9.32;2.80;;;;;;;22.89;54.20;99923.16;5091474;28;20457;-83
2023/09/06 03:33:12;;;;;;;7.40;2.57;;;;;;;22.88;54.24;99927.69;5091442;28;20483;-82
2023/09/06 03:35:38;;;;;;;8.37;2.77;;;;;;;22.88;54.31;99935.72;5091844;28;20024;-82
2023/09/06 03:38:08;;;;;;;7.87;2.67;;;;;;;22.83;54.02;99932.47;5073589;28;20598;-83
2023/09/06 03:40:37;;;;;;;8.00;2.40;;;;;;;22.85;54.25;99933.25;5091215;28;20023;-82
2023/09/06 03:43:17;;;;;;;8.30;2.67;;;;;;;22.81;54.45;99937.06;5091761;28;20040;-82
2023/09/06 03:45:44;;;;;;;7.22;2.60;;;;;;;22.80;54.58;99932.66;5093069;28;20023;-82
2023/09/06 03:48:13;;;;;;;7.60;2.60;;;;;;;22.77;54.42;99933.69;5093023;28;20047;-82
2023/09/06 03:50:38;;;;;;;8.15;2.92;;;;;;;22.75;54.60;99926.69;5091249;28;20024;-82
2023/09/06 03:53:04;;;;;;;11.87;3.17;;;;;;;22.74;54.57;99933.00;5091595;28;20494;-84
2023/09/06 03:55:32;;;;;;;8.10;3.33;;;;;;;22.74;54.72;99935.69;5085727;28;20027;-82
2023/09/06 03:57:58;;;;;;;9.13;2.80;;;;;;;22.68;54.90;99928.03;5051222;28;20477;-83
2023/09/06 04:00:30;;;;;;;8.82;2.65;;;;;;;22.73;54.58;99928.59;5051116;28;20028;-83
2023/09/06 04:02:56;;;;;;;8.52;2.65;;;;;;;22.73;54.78;99931.28;5033687;28;20083;-86
2023/09/06 04:05:26;;;;;;;9.70;2.53;;;;;;;22.70;54.71;99934.16;5051198;28;20037;-84
2023/09/06 04:07:56;;;;;;;9.00;3.00;;;;;;;22.68;54.98;99930.72;5051477;28;20028;-86
2023/09/06 04:10:36;;;;;;;10.23;2.53;;;;;;;22.64;55.17;99925.53;5051311;28;20100;-83
2023/09/06 04:13:02;;;;;;;9.30;2.65;;;;;;;22.64;54.85;99917.47;5050910;28;20032;-84
2023/09/06 04:15:29;;;;;;;8.88;3.08;;;;;;;22.63;54.74;99925.59;5050960;28;20112;-82
2023/09/06 04:17:59;;;;;;;10.70;2.70;;;;;;;22.67;54.92;99923.63;5050731;28;20025;-84
2023/09/06 04:20:35;;;;;;;8.32;2.58;;;;;;;22.65;54.92;99927.25;5050888;28;20029;-86
2023/09/06 04:23:01;;;;;;;9.70;2.95;;;;;;;22.65;55.09;99937.09;5051001;28;20044;-85
2023/09/06 04:25:27;;;;;;;9.65;2.80;;;;;;;22.63;55.20;99929.16;5055186;28;20025;-81
2023/09/06 04:27:56;;;;;;;9.32;2.67;;;;;;;22.64;55.00;99920.16;5090958;28;20549;-82
2023/09/06 04:30:28;;;;;;;7.40;2.80;;;;;;;22.66;54.88;99928.09;5090664;28;20044;-85
2023/09/06 04:32:59;;;;;;;7.55;2.72;;;;;;;22.68;54.86;99931.59;5090190;28;20036;-82
2023/09/06 04:35:33;;;;;;;7.72;2.70;;;;;;;22.67;54.81;99937.03;5090798;28;20055;-83
2023/09/06 04:37:58;;;;;;;8.43;3.03;;;;;;;22.68;54.89;99930.72;5090754;28;20020;-82
2023/09/06 04:40:24;;;;;;;9.30;2.80;;;;;;;22.65;54.99;99931.75;5090697;28;20030;-83
2023/09/06 04:42:49;;;;;;;8.33;3.00;;;;;;;22.65;55.10;99932.63;5091239;28;20045;-82
2023/09/06 04:45:14;;;;;;;7.40;2.60;;;;;;;22.60;55.09;99929.34;5090555;28;20051;-83
2023/09/06 04:47:43;;;;;;;9.68;2.97;;;;;;;22.64;54.95;99922.84;5090320;28;20027;-82
2023/09/06 04:50:11;;;;;;;9.10;2.97;;;;;;;22.65;54.88;99929.94;5090624;28;20261;-82
2023/09/06 04:52:43;;;;;;;9.70;2.72;;;;;;;22.64;55.02;99930.91;5069328;28;20029;-81
2023/09/06 04:55:12;;;;;;;7.90;3.08;;;;;;;22.63;55.15;99929.16;5050280;28;20033;-84
2023/09/06 04:57:38;;;;;;;10.45;2.80;;;;;;;22.64;54.97;99930.91;5050105;28;20149;-82
2023/09/06 05:00:30;;;;;;;7.18;2.53;;;;;;;22.65;55.33;99947.84;5050127;28;20488;-86
2023/09/06 05:02:57;;;;;;;7.73;2.70;;;;;;;22.63;55.34;99942.59;5050102;28;20024;-84
2023/09/06 05:05:23;;;;;;;7.88;3.10;;;;;;;22.62;55.51;99948.91;5031999;28;20032;-83
2023/09/06 05:07:49;;;;;;;127.75;13.18;;;;;;;22.63;55.42;99944.38;5031882;28;20462;-82
2023/09/06 05:10:15;;;;;;;25.42;4.35;;;;;;;22.63;55.31;99945.28;5049693;28;20025;-82
2023/09/06 05:12:40;;;;;;;8.67;2.80;;;;;;;22.64;55.28;99946.13;5049660;28;20044;-84
2023/09/06 05:15:07;;;;;;;7.23;2.73;;;;;;;22.64;55.39;99943.44;5049630;28;20036;-82
2023/09/06 05:17:33;;;;;;;8.65;3.17;;;;;;;22.65;55.34;99945.16;5049328;28;20040;-83
2023/09/06 05:20:30;;;;;;;10.07;3.10;;;;;;;22.65;55.63;99947.84;5049726;28;20036;-83
2023/09/06 05:23:01;;;;;;;7.33;3.20;;;;;;;22.64;55.73;99943.44;5049668;28;20055;-82
2023/09/06 05:25:27;;;;;;;8.75;3.00;;;;;;;22.62;55.89;99942.66;5053985;28;20512;-82
2023/09/06 05:27:58;;;;;;;9.48;2.88;;;;;;;22.64;55.88;99955.03;5089852;28;20088;-82
2023/09/06 05:30:24;;;;;;;7.53;2.90;;;;;;;22.64;55.86;99949.69;5089494;28;20044;-82
2023/09/06 05:32:49;;;;;;;9.70;3.10;;;;;;;22.65;56.01;99945.16;5089814;28;20040;-84
2023/09/06 05:35:15;;;;;;;12.23;3.37;;;;;;;22.68;55.88;99954.88;5090181;28;20073;-82
2023/09/06 05:37:41;;;;;;;11.73;3.40;;;;;;;22.69;56.03;99953.91;5090079;28;20048;-82
2023/09/06 05:40:08;;;;;;;8.70;3.10;;;;;;;22.71;55.85;99954.66;5090039;28;20605;-82
2023/09/06 05:42:33;;;;;;;10.18;3.30;;;;;;;22.70;56.00;99952.94;5090454;28;20062;-83
2023/09/06 05:44:58;;;;;;;6.63;3.03;;;;;;;22.70;56.19;99952.94;5087440;28;20140;-82
2023/09/06 05:47:24;;;;;;;9.20;3.20;;;;;;;22.76;55.90;99950.75;5069438;28;20017;-83
2023/09/06 05:49:52;;;;;;;10.63;3.30;;;;;;;22.80;55.81;99955.00;5051416;28;20032;-81
2023/09/06 05:52:17;;;;;;;6.55;3.00;;;;;;;22.82;56.20;99962.09;5048280;28;20040;-82
2023/09/06 05:54:44;;;;;;;7.82;3.00;;;;;;;22.83;56.14;99959.31;5049372;28;20025;-83
2023/09/06 05:57:09;;;;;;;10.50;3.03;;;;;;;22.85;56.22;99960.09;5065388;28;20021;-82
2023/09/06 05:59:36;;;;;;;8.73;3.25;;;;;;;22.91;56.19;99959.72;5069178;28;20066;-80
2023/09/06 06:02:02;;;;;;;10.68;3.40;;;;;;;22.94;56.07;99955.97;5069142;28;20361;-82
2023/09/06 06:04:28;;;;;;;10.50;3.50;;;;;;;22.94;56.29;99964.03;5071467;28;20047;-81
2023/09/06 06:06:54;;;;;;;10.30;3.70;;;;;;;22.98;56.18;99965.56;5073556;28;20028;-81
2023/09/06 06:09:21;;;;;;;10.20;3.50;;;;;;;23.01;56.48;99969.88;5073454;28;20025;-80
2023/09/06 06:11:47;;;;;;;10.83;3.33;;;;;;;23.03;56.15;99971.53;5074499;28;20052;-81
2023/09/06 06:14:13;;;;;;;7.78;2.88;;;;;;;23.10;56.23;99974.69;5075189;28;20133;-81
2023/09/06 06:16:39;;;;;;;8.07;3.10;;;;;;;23.15;56.10;99972.59;5071965;28;20112;-83
2023/09/06 06:19:04;;;;;;;9.33;3.40;;;;;;;23.18;56.12;99977.78;5072571;28;20021;-80
2023/09/06 06:21:31;;;;;;;10.03;3.03;;;;;;;23.25;55.65;99974.69;5073093;28;20183;-80
2023/09/06 06:23:57;;;;;;;8.23;3.22;;;;;;;23.28;56.04;99972.72;5073154;28;20468;-83
2023/09/06 06:26:23;;;;;;;10.00;3.60;;;;;;;23.29;56.10;99974.44;5083135;28;20115;-82
2023/09/06 06:28:49;;;;;;;9.52;3.33;;;;;;;23.36;55.83;99985.69;5093492;28;20570;-84
2023/09/06 06:31:15;;;;;;;11.57;3.60;;;;;;;23.33;56.00;99980.50;5092455;28;20174;-83
2023/09/06 06:33:40;;;;;;;10.02;3.55;;;;;;;23.41;55.62;99983.56;5093287;28;20024;-83
2023/09/06 06:36:05;;;;;;;6.80;3.10;;;;;;;23.44;55.52;99986.06;5093186;28;20418;-83
2023/09/06 06:38:32;;;;;;;8.17;3.50;;;;;;;23.49;55.56;99981.25;5093091;28;20027;-83
2023/09/06 06:40:57;;;;;;;8.23;3.20;;;;;;;23.57;55.72;99985.31;5056343;28;20483;-83
2023/09/06 06:43:22;;;;;;;8.17;3.40;;;;;;;23.64;55.01;99976.75;5060755;28;20029;-84
2023/09/06 06:45:55;;;;;;;10.67;3.47;;;;;;;23.66;55.29;99987.41;5057804;28;20463;-87
2023/09/06 06:48:21;;;;;;;11.85;3.10;;;;;;;23.65;54.88;99982.97;5052265;28;20469;-88
2023/09/06 06:50:46;;;;;;;8.15;3.08;;;;;;;23.70;54.79;99983.56;5050916;28;20033;-89
2023/09/06 06:53:12;;;;;;;12.10;3.93;;;;;;;23.70;54.82;99988.94;5050967;28;20025;-84
2023/09/06 06:55:38;;;;;;;9.40;3.50;;;;;;;23.75;54.63;99988.66;5052151;28;20384;-85
2023/09/06 06:58:06;;;;;;;11.20;3.53;;;;;;;23.82;54.63;99997.19;5052330;28;20036;-84
2023/09/06 07:00:31;;;;;;;11.20;3.33;;;;;;;23.89;54.34;99987.75;5053945;28;20515;-87
2023/09/06 07:03:00;;;;;;;11.23;3.53;;;;;;;23.93;54.08;100000.03;5053307;28;20029;-82
2023/09/06 07:05:25;;;;;;;7.90;2.92;;;;;;;24.03;54.31;100003.91;5053337;28;20021;-84
2023/09/06 07:07:51;;;;;;;11.47;3.37;;;;;;;24.16;53.90;99995.03;5052415;28;20051;-82
2023/09/06 07:10:17;;;;;;;8.40;3.27;;;;;;;24.16;53.64;99995.03;5052149;28;20397;-84
2023/09/06 07:12:43;;;;;;;8.52;3.33;;;;;;;24.23;53.43;99994.53;5052337;28;20044;-83
2023/09/06 07:15:09;;;;;;;8.23;3.10;;;;;;;24.32;53.57;99995.75;5051447;28;20032;-83
2023/09/06 07:17:35;;;;;;;8.27;3.10;;;;;;;24.42;52.78;99995.13;5051947;28;20081;-83
2023/09/06 07:20:01;;;;;;;9.65;2.92;;;;;;;24.51;52.62;100000.75;5052881;28;20033;-83
2023/09/06 07:22:26;;;;;;;9.73;3.20;;;;;;;24.58;52.64;100006.59;5052614;28;20102;-82
2023/09/06 07:24:51;;;;;;;9.67;3.40;;;;;;;24.65;52.70;100013.28;5036961;28;20470;-82
2023/09/06 07:27:17;;;;;;;8.48;3.53;;;;;;;24.65;52.52;100015.97;5066265;28;20029;-83
2023/09/06 07:29:42;;;;;;;29.53;5.10;;;;;;;24.75;52.19;100018.09;5051791;28;20045;-85
2023/09/06 07:32:08;;;;;;;13.03;3.60;;;;;;;24.81;52.05;100028.44;5052569;28;20083;-82
2023/09/06 07:34:33;;;;;;;15.27;3.80;;;;;;;24.80;51.61;100032.97;5052249;28;20470;-83
2023/09/06 07:36:58;;;;;;;24.27;4.60;;;;;;;24.86;51.88;100030.84;5054388;28;20017;-85
2023/09/06 07:39:24;;;;;;;14.88;3.67;;;;;;;24.99;51.19;100030.88;5060453;28;20103;-87
2023/09/06 07:41:53;;;;;;;31.87;5.03;;;;;;;25.03;51.08;100024.28;5051459;28;20037;-81
2023/09/06 07:44:19;;;;;;;13.98;3.25;;;;;;;25.15;51.18;100031.50;5051480;28;20040;-82
2023/09/06 07:46:48;;;;;;;9.47;3.00;;;;;;;25.29;51.14;100032.41;5051446;28;20033;-81
2023/09/06 07:49:16;;;;;;;7.38;3.50;;;;;;;25.34;50.48;100035.63;5054941;28;20074;-82
2023/09/06 07:51:42;;;;;;;12.88;3.72;;;;;;;25.42;50.76;100043.19;5042373;28;20033;-81
2023/09/06 07:54:08;;;;;;;11.33;3.60;;;;;;;25.46;49.72;100045.56;5057809;28;20029;-83
2023/09/06 07:56:33;;;;;;;10.02;3.15;;;;;;;25.45;49.81;100048.34;5059656;28;20499;-83
2023/09/06 07:58:59;;;;;;;12.27;3.50;;;;;;;25.51;49.53;100038.03;5049925;28;20029;-84
2023/09/06 08:01:25;;;;;;;7.17;3.30;;;;;;;25.60;49.42;100038.34;5049786;28;20036;-86
2023/09/06 08:03:50;;;;;;;10.00;3.08;;;;;;;25.65;49.70;100033.47;5031607;28;20674;-83
2023/09/06 08:06:16;;;;;;;8.00;3.00;;;;;;;25.74;49.31;100040.06;5049401;28;20033;-83
2023/09/06 08:08:41;;;;;;;10.45;3.13;;;;;;;25.82;49.27;100045.78;5049682;28;20032;-84
2023/09/06 08:11:06;;;;;;;7.30;3.13;;;;;;;25.99;49.16;100036.47;5049943;28;20420;-85
2023/09/06 08:13:32;;;;;;;10.20;3.10;;;;;;;26.17;48.37;100041.53;5050497;28;20029;-85
2023/09/06 08:15:57;;;;;;;9.07;3.03;;;;;;;26.33;48.29;100042.09;5056991;28;20020;-83
2023/09/06 08:18:23;;;;;;;16.00;3.72;;;;;;;26.48;47.81;100040.09;5060918;28;20081;-82
2023/09/06 08:20:48;;;;;;;8.30;3.00;;;;;;;26.55;47.36;100027.00;5064386;28;20318;-84
2023/09/06 08:23:14;;;;;;;10.10;3.43;;;;;;;26.70;47.19;100043.03;5051236;28;20043;-81
2023/09/06 08:25:39;;;;;;;7.10;3.20;;;;;;;26.80;47.33;100044.03;5074484;28;20032;-84
2023/09/06 08:28:05;;;;;;;6.45;2.78;;;;;;;26.86;46.96;100035.50;5091007;28;20028;-86
2023/09/06 08:30:31;;;;;;;12.30;3.30;;;;;;;26.90;46.83;100036.13;5090679;28;20123;-88
2023/09/06 08:32:56;;;;;;;6.95;2.80;;;;;;;26.93;46.99;100042.19;5090910;28;20024;-83
2023/09/06 08:35:23;;;;;;;9.47;3.17;;;;;;;26.98;46.82;100049.06;5090823;28;20035;-84
2023/09/06 08:37:49;;;;;;;8.38;2.80;;;;;;;27.03;46.44;100044.16;5068100;28;20033;-85
2023/09/06 08:40:20;;;;;;;7.97;3.10;;;;;;;27.00;45.95;100042.53;5051405;28;20025;-85
2023/09/06 08:42:45;;;;;;;9.77;3.05;;;;;;;27.12;46.18;100032.63;5050797;28;20025;-85
2023/09/06 08:45:11;;;;;;;8.18;2.90;;;;;;;27.05;45.94;100039.50;5050445;28;20074;-85
2023/09/06 08:47:39;;;;;;;10.57;3.50;;;;;;;27.16;46.20;100033.25;5050321;28;20032;-84
2023/09/06 08:50:09;;;;;;;7.43;3.17;;;;;;;27.26;45.82;100036.09;5050554;28;20029;-84
2023/09/06 08:52:37;;;;;;;9.20;3.30;;;;;;;27.32;45.36;100030.22;5050513;28;20065;-84
2023/09/06 08:55:03;;;;;;;6.93;3.23;;;;;;;27.48;45.43;100033.44;5050749;28;20068;-84
2023/09/06 08:57:28;;;;;;;8.25;3.40;;;;;;;27.58;45.10;100030.03;5069226;28;20052;-84
2023/09/06 08:59:54;;;;;;;8.37;3.07;;;;;;;27.63;45.16;100038.66;5070050;28;20086;-81
2023/09/06 09:02:19;;;;;;;9.98;3.30;;;;;;;27.67;44.94;100037.41;5070062;28;20036;-79
2023/09/06 09:04:45;;;;;;;8.17;3.10;;;;;;;27.76;44.62;100038.53;5070362;28;20476;-79
2023/09/06 09:07:12;;;;;;;12.27;3.10;;;;;;;27.87;44.76;100040.38;5070245;28;20075;-81
2023/09/06 09:10:05;;;;;;;7.07;3.20;;;;;;;27.88;44.32;100042.94;5069858;28;20029;-78
2023/09/06 09:12:32;;;;;;;7.18;3.03;;;;;;;27.98;44.16;100044.91;5055531;28;20040;-80
2023/09/06 09:14:58;;;;;;;9.10;3.33;;;;;;;28.12;44.17;100041.91;5049820;28;20200;-87
2023/09/06 09:17:25;;;;;;;7.20;3.20;;;;;;;28.06;43.91;100035.16;5061782;28;20020;-78
2023/09/06 09:19:52;;;;;;;9.00;3.47;;;;;;;28.03;43.85;100040.81;5070277;28;20031;-75
2023/09/06 09:22:28;;;;;;;7.47;3.25;;;;;;;28.05;43.74;100036.13;5055143;28;20086;-75
2023/09/06 09:24:58;;;;;;;9.00;3.10;;;;;;;28.10;43.71;100043.06;5052987;28;20036;-76
2023/09/06 09:27:27;;;;;;;7.50;3.53;;;;;;;28.26;43.92;100035.41;5086821;28;20020;-76
2023/09/06 09:29:56;;;;;;;7.35;3.03;;;;;;;28.39;43.29;100028.97;5090264;28;20040;-75
2023/09/06 09:32:22;;;;;;;10.45;3.50;;;;;;;28.49;43.47;100035.34;5090062;28;20571;-76
2023/09/06 09:34:47;;;;;;;9.52;3.22;;;;;;;28.61;43.18;100033.44;5054222;28;20029;-78
2023/09/06 09:37:13;;;;;;;6.40;2.90;;;;;;;28.72;43.08;100017.16;5049478;28;20032;-77
2023/09/06 09:39:38;;;;;;;8.80;3.30;;;;;;;28.85;42.46;100022.44;5049229;28;20060;-78
2023/09/06 09:42:08;;;;;;;10.63;2.90;;;;;;;28.90;42.56;100033.72;5049608;28;20113;-78
2023/09/06 09:44:34;;;;;;;8.05;3.13;;;;;;;28.99;42.16;100028.50;5049846;28;20032;-83
2023/09/06 09:47:10;;;;;;;8.27;3.10;;;;;;;29.01;42.12;100021.09;5049837;28;20111;-77
2023/09/06 09:49:36;;;;;;;9.55;3.58;;;;;;;29.09;42.02;100026.72;5049932;28;20021;-76
2023/09/06 09:52:02;;;;;;;8.70;3.03;;;;;;;29.17;41.72;100029.63;5049436;28;20110;-76
2023/09/06 09:54:33;;;;;;;10.45;3.08;;;;;;;29.23;41.76;100018.25;5049476;28;20052;-75
2023/09/06 09:57:06;;;;;;;7.00;3.30;;;;;;;29.36;41.58;100011.75;5064200;28;20036;-75
2023/09/06 09:59:33;;;;;;;8.38;3.28;;;;;;;29.49;40.81;100011.56;5069707;28;20063;-75
2023/09/06 10:02:00;;;;;;;9.15;3.08;;;;;;;29.49;41.18;100004.28;5069818;28;20029;-76
2023/09/06 10:04:28;;;;;;;6.87;2.90;;;;;;;29.56;40.77;100012.72;5069385;28;20028;-76
2023/09/06 10:06:55;;;;;;;10.30;3.50;;;;;;;29.56;40.84;100012.72;5051551;28;20477;-75
2023/09/06 10:09:21;;;;;;;8.65;3.00;;;;;;;29.61;40.70;100015.06;5069246;28;20140;-78
2023/09/06 10:11:48;;;;;;;7.40;3.15;;;;;;;29.69;40.71;100007.06;5069030;28;20036;-75
2023/09/06 10:14:14;;;;;;;10.13;3.35;;;;;;;29.72;40.59;100006.78;5069430;28;20495;-75
2023/09/06 10:16:40;;;;;;;9.33;2.87;;;;;;;29.84;40.93;100004.00;5070517;28;20029;-75
2023/09/06 10:19:06;;;;;;;8.15;3.30;;;;;;;29.97;40.98;100010.03;5070486;28;20032;-83
2023/09/06 10:21:36;;;;;;;7.43;3.63;;;;;;;30.01;39.72;99994.31;5073196;28;20028;-76
2023/09/06 10:24:03;;;;;;;7.53;3.30;;;;;;;30.04;40.23;100005.81;5063283;28;20031;-75
2023/09/06 10:26:34;;;;;;;8.30;3.13;;;;;;;30.12;39.69;100005.06;5059724;28;20096;-81
2023/09/06 10:29:01;;;;;;;11.40;3.40;;;;;;;30.24;39.63;100000.38;5059540;28;20369;-75
2023/09/06 10:31:53;;;;;;;10.18;3.47;;;;;;;30.12;39.57;99993.38;5058165;28;20070;-75
2023/09/06 10:34:19;;;;;;;8.40;3.57;;;;;;;30.30;39.59;99999.84;5050850;28;20045;-75
2023/09/06 10:36:54;;;;;;;9.52;3.45;;;;;;;30.32;39.95;99997.84;5059405;28;20096;-76
2023/09/06 10:39:21;;;;;;;8.57;3.60;;;;;;;30.45;39.15;99991.25;5059601;28;20074;-76
2023/09/06 10:42:09;;;;;;;8.32;3.55;;;;;;;30.51;40.07;99988.00;5058591;28;20088;-76
2023/09/06 10:44:56;;;;;;;9.98;3.22;;;;;;;30.62;39.23;99990.59;5059662;28;20029;-85
2023/09/06 10:47:33;;;;;;;11.30;3.13;;;;;;;30.73;39.21;99983.25;5057715;28;20025;-76
2023/09/06 10:50:17;;;;;;;7.20;3.08;;;;;;;30.83;38.45;99983.25;5039345;28;20021;-76
2023/09/06 10:52:56;;;;;;;10.90;3.28;;;;;;;30.90;39.08;99984.41;5058991;28;20121;-83
2023/09/06 10:55:25;;;;;;;9.68;3.20;;;;;;;30.92;38.58;99987.84;5064393;28;20551;-76
2023/09/06 10:58:08;;;;;;;9.88;3.28;;;;;;;30.98;38.59;99984.53;5033763;28;20183;-76
2023/09/06 11:00:34;;;;;;;10.53;3.40;;;;;;;31.16;38.23;99978.34;5050827;28;20303;-80
2023/09/06 11:03:13;;;;;;;7.65;3.03;;;;;;;31.26;38.15;99986.50;5051318;28;20667;-78
2023/09/06 11:05:46;;;;;;;9.45;2.97;;;;;;;31.37;38.45;99967.25;5051422;28;20452;-77
2023/09/06 11:08:24;;;;;;;13.63;3.67;;;;;;;31.39;37.59;99978.00;5051437;28;20116;-77
2023/09/06 11:10:50;;;;;;;8.25;3.35;;;;;;;31.37;38.09;99967.25;5051169;28;20036;-77
2023/09/06 11:13:15;;;;;;;8.70;3.20;;;;;;;31.52;37.89;99962.19;5051550;28;20033;-77
2023/09/06 11:15:42;;;;;;;8.07;3.60;;;;;;;31.58;36.83;99963.47;5050943;28;20021;-76
2023/09/06 11:18:09;;;;;;;9.52;3.40;;;;;;;31.69;36.90;99963.25;5059191;28;20048;-77
2023/09/06 11:20:35;;;;;;;9.45;3.50;;;;;;;31.76;37.45;99964.41;5052111;28;20167;-76
2023/09/06 11:23:02;;;;;;;9.45;3.60;;;;;;;31.82;36.98;99954.75;5054402;28;20021;-87
2023/09/06 11:25:29;;;;;;;8.15;3.35;;;;;;;32.00;36.80;99962.97;5056950;28;20089;-88
2023/09/06 11:27:59;;;;;;;7.93;3.30;;;;;;;32.07;36.30;99961.34;5061412;28;20086;-78
2023/09/06 11:30:26;;;;;;;9.13;3.45;;;;;;;32.13;36.29;99956.28;5052004;28;20041;-78
2023/09/06 11:32:57;;;;;;;10.30;3.47;;;;;;;32.14;36.42;99960.72;5052663;28;20033;-81